createdAt,value
2023-04-06T00:00:20.914Z,11.5
2023-04-06T00:03:22.891Z,13.6
2023-04-06T00:06:24.818Z,11.7
2023-04-06T00:09:26.791Z,12.2
2023-04-06T00:12:28.756Z,13.4
2023-04-06T00:15:30.758Z,12.1
2023-04-06T00:18:32.682Z,12.8
2023-04-06T00:21:34.727Z,13.2
2023-04-06T00:24:36.652Z,12
2023-04-06T00:27:38.598Z,12.6
2023-04-06T00:30:40.532Z,11.3
2023-04-06T00:33:42.524Z,10.6
2023-04-06T00:36:44.499Z,17.1
2023-04-06T00:39:46.447Z,14.9
2023-04-06T00:42:48.375Z,12.5
2023-04-06T00:45:50.386Z,17.1
2023-04-06T00:48:52.310Z,12
2023-04-06T00:51:54.280Z,13.9
2023-04-06T00:54:56.237Z,13.3
2023-04-06T00:57:58.183Z,11.5
2023-04-06T01:01:00.282Z,15.5
2023-04-06T01:04:02.129Z,13.2
2023-04-06T01:07:04.141Z,14.2
2023-04-06T01:10:06.137Z,13.7
2023-04-06T01:13:08.611Z,11.7
2023-04-06T01:16:10.036Z,12.6
2023-04-06T01:19:11.987Z,11.6
2023-04-06T01:22:13.983Z,15.6
2023-04-06T01:25:15.954Z,13.1
2023-04-06T01:28:17.958Z,12.1
2023-04-06T01:31:19.900Z,11.6
2023-04-06T01:34:21.817Z,12
2023-04-06T01:37:23.817Z,12.3
2023-04-06T01:40:25.785Z,11.6
2023-04-06T01:43:27.782Z,10
2023-04-06T01:46:29.730Z,11.5
2023-04-06T01:49:31.648Z,11.3
2023-04-06T01:52:33.690Z,12.5
2023-04-06T01:55:35.618Z,9.3
2023-04-06T01:58:37.543Z,11.9
2023-04-06T02:01:39.524Z,14.3
2023-04-06T02:04:41.533Z,13.4
2023-04-06T02:07:43.483Z,10.8
2023-04-06T02:10:45.430Z,12.7
2023-04-06T02:13:47.413Z,12.2
2023-04-06T02:16:49.413Z,12.2
2023-04-06T02:19:51.343Z,9.4
2023-04-06T02:22:53.321Z,10.7
2023-04-06T02:25:55.312Z,11.8
2023-04-06T02:28:57.344Z,10.2
2023-04-06T02:31:59.248Z,13.7
2023-04-06T02:35:01.239Z,10.5
2023-04-06T02:38:03.243Z,10.2
2023-04-06T02:41:05.196Z,10.3
2023-04-06T02:44:07.204Z,13.5
2023-04-06T02:47:09.159Z,11.3
2023-04-06T02:50:11.160Z,11.4
2023-04-06T02:53:13.138Z,11.9
2023-04-06T02:56:15.094Z,13.3
2023-04-06T02:59:17.126Z,13.3
2023-04-06T03:02:19.034Z,9.4
2023-04-06T03:05:20.986Z,10.8
2023-04-06T03:08:22.941Z,12.4
2023-04-06T03:11:24.912Z,11.8
2023-04-06T03:14:26.937Z,11.7
2023-04-06T03:17:28.910Z,10.7
2023-04-06T03:20:30.840Z,12
2023-04-06T03:23:32.787Z,14.4
2023-04-06T03:26:34.752Z,11
2023-04-06T03:29:36.786Z,13.9
2023-04-06T03:32:38.797Z,14
2023-04-06T03:35:40.711Z,11.9
2023-04-06T03:38:42.625Z,12.6
2023-04-06T03:41:44.597Z,12.5
2023-04-06T03:44:46.546Z,11.2
2023-04-06T03:47:48.565Z,11
2023-04-06T03:50:50.485Z,10.1
2023-04-06T03:53:52.538Z,16.2
2023-04-06T03:56:54.555Z,9.9
2023-04-06T03:59:56.411Z,14.7
2023-04-06T04:02:58.413Z,14.4
2023-04-06T04:06:00.346Z,10
2023-04-06T04:09:02.282Z,14.1
2023-04-06T04:12:04.239Z,12.3
2023-04-06T04:15:06.197Z,13.8
2023-04-06T04:18:08.257Z,12.2
2023-04-06T04:21:10.154Z,12.6
2023-04-06T04:24:12.221Z,15.4
2023-04-06T04:27:14.174Z,16.6
2023-04-06T04:30:16.149Z,10.5
2023-04-06T04:33:18.067Z,14.4
2023-04-06T04:36:20.069Z,17.9
2023-04-06T04:39:22.195Z,13.6
2023-04-06T04:42:24.122Z,11.6
2023-04-06T04:45:26.103Z,12.5
2023-04-06T04:48:30.905Z,12.3
2023-04-06T04:51:32.864Z,13.6
2023-04-06T04:54:34.877Z,14.7
2023-04-06T04:57:36.835Z,13.2
2023-04-06T05:00:38.809Z,14.2
2023-04-06T05:03:40.881Z,13.4
2023-04-06T05:06:42.730Z,15.1
2023-04-06T05:09:44.714Z,17.4
2023-04-06T05:12:46.640Z,16.7
2023-04-06T05:15:48.639Z,13.3
2023-04-06T05:18:50.623Z,15.2
2023-04-06T05:21:52.572Z,13.6
2023-04-06T05:24:54.548Z,13.5
2023-04-06T05:27:56.546Z,13.9
2023-04-06T05:30:58.487Z,14.4
2023-04-06T05:34:00.427Z,14.8
2023-04-06T05:37:02.385Z,12.4
2023-04-06T05:40:04.325Z,14.2
2023-04-06T05:43:06.294Z,12.7
2023-04-06T05:46:08.297Z,15
2023-04-06T05:49:10.374Z,21.1
2023-04-06T05:52:12.213Z,17.8
2023-04-06T05:55:14.210Z,15.5
2023-04-06T05:58:16.101Z,21
2023-04-06T06:01:18.060Z,21.8
2023-04-06T06:04:20.005Z,26.1
2023-04-06T06:07:21.979Z,19.6
2023-04-06T06:10:23.968Z,24
2023-04-06T06:13:25.956Z,22.5
2023-04-06T06:16:27.900Z,20.2
2023-04-06T06:19:29.802Z,18.3
2023-04-06T06:22:31.770Z,18.1
2023-04-06T06:25:33.756Z,21
2023-04-06T06:28:35.738Z,21.8
2023-04-06T06:31:37.789Z,17.8
2023-04-06T06:34:39.708Z,16.2
2023-04-06T06:37:41.635Z,12.2
2023-04-06T06:40:43.581Z,13.2
2023-04-06T06:43:45.560Z,13.7
2023-04-06T06:46:47.528Z,13.6
2023-04-06T06:49:49.519Z,14.5
2023-04-06T06:52:51.500Z,13.1
2023-04-06T06:55:53.469Z,11.8
2023-04-06T06:58:55.425Z,13.1
2023-04-06T07:01:57.530Z,11.5
2023-04-06T07:04:59.325Z,15.9
2023-04-06T07:08:01.284Z,14.3
2023-04-06T07:11:03.277Z,13.6
2023-04-06T07:14:05.309Z,12.9
2023-04-06T07:17:07.318Z,13.2
2023-04-06T07:20:09.230Z,13.5
2023-04-06T07:23:11.251Z,12.5
2023-04-06T07:26:13.223Z,16.2
2023-04-06T07:29:15.220Z,15.2
2023-04-06T07:32:17.142Z,14.4
2023-04-06T07:35:19.146Z,16
2023-04-06T07:38:21.016Z,13.8
2023-04-06T07:41:23.005Z,18.9
2023-04-06T07:44:24.953Z,14.9
2023-04-06T07:47:26.936Z,13.1
2023-04-06T07:50:28.924Z,14.7
2023-04-06T07:53:30.925Z,14.8
2023-04-06T07:56:32.860Z,16.1
2023-04-06T07:59:34.917Z,13.6
2023-04-06T08:02:36.787Z,13.3
2023-04-06T08:05:38.798Z,16.5
2023-04-06T08:08:40.662Z,16.2
2023-04-06T08:11:42.665Z,14.3
2023-04-06T08:14:44.580Z,15.2
2023-04-06T08:17:46.607Z,11.2
2023-04-06T08:20:48.596Z,12.1
2023-04-06T08:23:50.470Z,14.5
2023-04-06T08:26:52.501Z,10.9
2023-04-06T08:29:54.521Z,11.5
2023-04-06T08:32:56.459Z,13.6
2023-04-06T08:35:58.443Z,12.4
2023-04-06T08:39:00.350Z,13.2
2023-04-06T08:42:02.346Z,11.4
2023-04-06T08:45:04.314Z,9.9
2023-04-06T08:48:06.303Z,11
2023-04-06T08:51:08.312Z,12
2023-04-06T08:54:10.356Z,10.8
2023-04-06T08:57:12.261Z,11.6
2023-04-06T09:00:14.193Z,10.1
2023-04-06T09:03:16.293Z,11.2
2023-04-06T09:06:18.140Z,11.8
2023-04-06T09:09:21.647Z,13.3
2023-04-06T09:12:22.022Z,9.9
2023-04-06T09:15:25.002Z,12
2023-04-06T09:18:25.942Z,12.9
2023-04-06T09:21:27.920Z,11.7
2023-04-06T09:24:29.889Z,14.3
2023-04-06T09:27:31.863Z,9
2023-04-06T09:30:33.808Z,11.4
2023-04-06T09:33:35.787Z,13.7
2023-04-06T09:36:37.739Z,11.3
2023-04-06T09:39:39.734Z,12.6
2023-04-06T09:42:41.731Z,12.6
2023-04-06T09:45:43.685Z,12.1
2023-04-06T09:48:45.629Z,14.2
2023-04-06T09:51:47.599Z,14
2023-04-06T09:54:49.545Z,17.7
2023-04-06T09:57:51.556Z,13.6
2023-04-06T10:00:54.563Z,14.6
2023-04-06T10:03:55.544Z,11.8
2023-04-06T10:06:57.398Z,13.1
2023-04-06T10:09:59.340Z,14.5
2023-04-06T10:13:01.294Z,12.2
2023-04-06T10:16:03.351Z,14.5
2023-04-06T10:19:05.281Z,15.1
2023-04-06T10:22:07.181Z,11.5
2023-04-06T10:25:09.180Z,13.7
2023-04-06T10:28:11.141Z,15.5
2023-04-06T10:31:13.080Z,10.7
2023-04-06T10:34:15.036Z,13.4
2023-04-06T10:37:17.080Z,12.1
2023-04-06T10:40:18.947Z,13
2023-04-06T10:43:20.960Z,11.5
2023-04-06T10:46:22.982Z,13.6
2023-04-06T10:49:26.581Z,14.1
2023-04-06T10:52:26.943Z,15.2
2023-04-06T10:55:28.787Z,12.7
2023-04-06T10:58:30.742Z,11.9
2023-04-06T11:01:32.724Z,14.1
2023-04-06T11:04:34.722Z,14.6
2023-04-06T11:07:36.645Z,11.2
2023-04-06T11:10:38.604Z,10.9
2023-04-06T11:13:40.564Z,15.2
2023-04-06T11:16:42.586Z,13.6
2023-04-06T11:19:44.553Z,15.2
2023-04-06T11:22:46.482Z,13.2
2023-04-06T11:25:48.451Z,12.1
2023-04-06T11:28:50.410Z,10.9
2023-04-06T11:31:52.404Z,13.2
2023-04-06T11:34:54.318Z,14
2023-04-06T11:37:57.152Z,14.9
2023-04-06T11:40:58.227Z,14.2
2023-04-06T11:44:00.394Z,13.4
2023-04-06T11:47:02.183Z,11.4
2023-04-06T11:50:04.150Z,13.1
2023-04-06T11:53:06.139Z,13.4
2023-04-06T11:56:08.055Z,14.7
2023-04-06T11:59:10.065Z,16
2023-04-06T12:02:12.004Z,12.3
2023-04-06T12:05:13.989Z,14.6
2023-04-06T12:08:15.922Z,12.3
2023-04-06T12:11:17.897Z,15.1
2023-04-06T12:14:19.850Z,13.5
2023-04-06T12:17:21.869Z,12.2
2023-04-06T12:20:26.787Z,13.4
2023-04-06T12:23:25.752Z,13.3
2023-04-06T12:26:27.712Z,15.7
2023-04-06T12:29:29.695Z,10.1
2023-04-06T12:32:31.659Z,13.7
2023-04-06T12:35:33.619Z,13.8
2023-04-06T12:38:35.605Z,11.4
2023-04-06T12:41:37.650Z,12.1
2023-04-06T12:44:39.622Z,12.2
2023-04-06T12:47:41.617Z,10.4
2023-04-06T12:50:43.604Z,11.3
2023-04-06T12:53:45.555Z,10.6
2023-04-06T12:56:47.502Z,11.3
2023-04-06T12:59:49.508Z,13.4
2023-04-06T13:02:51.471Z,11.8
2023-04-06T13:05:53.362Z,8.7
2023-04-06T13:08:55.310Z,10.9
2023-04-06T13:11:57.274Z,7.8
2023-04-06T13:14:59.242Z,8.4
2023-04-06T13:18:01.207Z,10.7
2023-04-06T13:21:03.191Z,9.6
2023-04-06T13:24:05.137Z,10
2023-04-06T13:27:07.101Z,7.7
2023-04-06T13:30:09.225Z,9.5
2023-04-06T13:33:11.047Z,7.5
2023-04-06T13:36:13.381Z,8.5
2023-04-06T13:39:14.998Z,9.9
2023-04-06T13:42:16.945Z,8.7
2023-04-06T13:45:18.894Z,9.9
2023-04-06T13:48:20.904Z,10.4
2023-04-06T13:51:22.804Z,9.9
2023-04-06T13:54:24.774Z,11.3
2023-04-06T13:57:26.742Z,9
2023-04-06T14:00:28.733Z,8.9
2023-04-06T14:03:30.826Z,9
2023-04-06T14:06:32.611Z,8.1
2023-04-06T14:09:34.581Z,8.9
2023-04-06T14:12:36.599Z,7.2
2023-04-06T14:15:38.539Z,9.5
2023-04-06T14:18:40.517Z,13.1
2023-04-06T14:21:42.496Z,11.7
2023-04-06T14:24:44.461Z,7.5
2023-04-06T14:27:46.436Z,10.4
2023-04-06T14:30:48.534Z,8.5
2023-04-06T14:33:50.413Z,10.3
2023-04-06T14:36:52.477Z,9.4
2023-04-06T14:39:54.352Z,8.9
2023-04-06T14:42:56.347Z,8.3
2023-04-06T14:45:58.289Z,8.1
2023-04-06T14:49:00.272Z,9.2
2023-04-06T14:52:02.249Z,7.7
2023-04-06T14:55:04.554Z,7.3
2023-04-06T14:58:06.205Z,9
2023-04-06T15:01:08.211Z,7.1
2023-04-06T15:04:10.335Z,10.5
2023-04-06T15:07:12.164Z,11.2
2023-04-06T15:10:14.066Z,8.6
2023-04-06T15:13:16.066Z,10.3
2023-04-06T15:16:18.060Z,8.9
2023-04-06T15:19:19.980Z,8.7
2023-04-06T15:22:21.908Z,9.9
2023-04-06T15:25:23.905Z,10.2
2023-04-06T15:28:25.953Z,8.6
2023-04-06T15:31:36.416Z,7.7
2023-04-06T15:34:29.886Z,7.2
2023-04-06T15:37:31.911Z,9.6
2023-04-06T15:40:33.856Z,8.7
2023-04-06T15:43:35.817Z,8.5
2023-04-06T15:46:37.793Z,10.2
2023-04-06T15:49:39.737Z,8.5
2023-04-06T15:52:41.705Z,10.9
2023-04-06T15:55:43.720Z,8.3
2023-04-06T15:58:45.801Z,8.8
2023-04-06T16:01:47.738Z,9.1
2023-04-06T16:04:49.659Z,9.5
2023-04-06T16:07:51.496Z,10.4
2023-04-06T16:10:53.468Z,7.4
2023-04-06T16:13:55.750Z,6.8
2023-04-06T16:16:57.443Z,6.1
2023-04-06T16:19:59.353Z,6.4
2023-04-06T16:23:01.311Z,6.3
2023-04-06T16:26:03.275Z,7.9
2023-04-06T16:29:05.215Z,5.5
2023-04-06T16:32:07.333Z,6
2023-04-06T16:35:09.428Z,5.5
2023-04-06T16:38:11.197Z,6.5
2023-04-06T16:41:13.298Z,4.7
2023-04-06T16:44:15.324Z,5
2023-04-06T16:47:17.344Z,6.1
2023-04-06T16:50:19.340Z,6.1
2023-04-06T16:53:21.261Z,7.1
2023-04-06T16:56:23.300Z,6
2023-04-06T16:59:25.311Z,5.2
2023-04-06T17:02:27.376Z,4.1
2023-04-06T17:05:32.365Z,7.4
2023-04-06T17:08:34.328Z,6.7
2023-04-06T17:11:46.401Z,7
2023-04-06T17:14:43.577Z,6.3
2023-04-06T17:17:43.145Z,7.7
2023-04-06T17:20:45.088Z,5.3
2023-04-06T17:23:47.170Z,4.8
2023-04-06T17:26:49.272Z,3.9
2023-04-06T17:29:50.956Z,3.8
2023-04-06T17:32:52.910Z,3.6
2023-04-06T17:35:54.905Z,4.6
2023-04-06T17:38:56.794Z,6.4
2023-04-06T17:41:58.760Z,5.1
2023-04-06T17:45:00.758Z,5.1
2023-04-06T17:48:02.721Z,3.8
2023-04-06T17:51:04.651Z,4.6
2023-04-06T17:54:06.603Z,4.1
2023-04-06T17:57:08.607Z,5.1
2023-04-06T18:00:10.542Z,3.4
2023-04-06T18:03:12.564Z,3.8
2023-04-06T18:06:14.457Z,2.7
2023-04-06T18:09:16.426Z,3.3
2023-04-06T18:12:18.418Z,3.5
2023-04-06T18:15:20.392Z,4.3
2023-04-06T18:18:22.321Z,5
2023-04-06T18:21:24.325Z,3
2023-04-06T18:27:28.188Z,4.1
2023-04-06T18:30:30.188Z,5.7
2023-04-06T18:33:32.240Z,3.9
2023-04-06T18:36:34.409Z,5.5
2023-04-06T18:39:36.091Z,4.6
2023-04-06T18:42:38.006Z,5
2023-04-06T18:45:39.986Z,4.8
2023-04-06T18:48:41.919Z,5.6
2023-04-06T18:51:43.863Z,5.8
2023-04-06T18:54:45.863Z,5.6
2023-04-06T18:57:47.822Z,7.5
2023-04-06T19:00:49.748Z,4
2023-04-06T19:03:51.870Z,5.6
2023-04-06T19:06:53.751Z,5.8
2023-04-06T19:09:55.670Z,5.2
2023-04-06T19:12:57.667Z,4.2
2023-04-06T19:15:59.588Z,5
2023-04-06T19:19:01.542Z,6.8
2023-04-06T19:22:03.516Z,6.1
2023-04-06T19:25:05.448Z,5.8
2023-04-06T19:28:07.460Z,5.1
2023-04-06T19:31:09.405Z,5
2023-04-06T19:34:11.352Z,7.7
2023-04-06T19:37:13.337Z,5.5
2023-04-06T19:40:15.360Z,7.4
2023-04-06T19:43:17.290Z,7.6
2023-04-06T19:46:19.225Z,6
2023-04-06T19:49:21.197Z,6.6
2023-04-06T19:52:23.146Z,8
2023-04-06T19:55:25.137Z,9
2023-04-06T19:58:27.076Z,6
2023-04-06T20:01:29.353Z,9.6
2023-04-06T20:04:31.172Z,7
2023-04-06T20:07:33.000Z,7.3
2023-04-06T20:10:34.955Z,7.8
2023-04-06T20:13:36.964Z,7.7
2023-04-06T20:16:38.921Z,9.9
2023-04-06T20:19:40.892Z,8.9
2023-04-06T20:22:42.809Z,8.2
2023-04-06T20:25:44.829Z,7.2
2023-04-06T20:28:46.757Z,7.4
2023-04-06T20:31:48.746Z,8.5
2023-04-06T20:34:50.691Z,11.3
2023-04-06T20:37:52.751Z,11.7
2023-04-06T20:40:54.686Z,8.9
2023-04-06T20:43:56.602Z,10.5
2023-04-06T20:46:58.605Z,10.4
2023-04-06T20:50:00.544Z,10.2
2023-04-06T20:53:02.465Z,9.3
2023-04-06T20:56:04.434Z,10.1
2023-04-06T20:59:06.382Z,8.4
2023-04-06T21:02:08.502Z,8.1
2023-04-06T21:05:10.653Z,12.1
2023-04-06T21:08:12.339Z,12.9
2023-04-06T21:11:14.385Z,12.5
2023-04-06T21:14:17.137Z,12.2
2023-04-06T21:17:18.276Z,13.2
2023-04-06T21:20:20.259Z,14.3
2023-04-06T21:23:22.196Z,11.7
2023-04-06T21:26:24.228Z,13.1
2023-04-06T21:29:26.143Z,11.6
2023-04-06T21:32:28.130Z,13.5
2023-04-06T21:35:30.057Z,14.1
2023-04-06T21:38:32.012Z,10.4
2023-04-06T21:41:33.983Z,13.8
2023-04-06T21:44:35.926Z,12.7
2023-04-06T21:47:37.931Z,12.9
2023-04-06T21:50:39.862Z,12.1
2023-04-06T21:53:41.852Z,13.8
2023-04-06T21:56:43.774Z,13.9
2023-04-06T21:59:46.002Z,15
2023-04-06T22:02:47.847Z,16.8
2023-04-06T22:05:49.688Z,15.2
2023-04-06T22:08:51.638Z,16
2023-04-06T22:11:53.599Z,15.2
2023-04-06T22:14:55.563Z,16.5
2023-04-06T22:17:57.595Z,18.6
2023-04-06T22:20:59.440Z,19
2023-04-06T22:24:01.413Z,19.5
2023-04-06T22:27:03.382Z,18
2023-04-06T22:30:05.350Z,20
2023-04-06T22:33:07.340Z,19.3
2023-04-06T22:36:09.290Z,19.6
2023-04-06T22:39:11.194Z,19.3
2023-04-06T22:42:13.145Z,23.4
2023-04-06T22:45:15.098Z,19
2023-04-06T22:48:17.124Z,22.2
2023-04-06T22:51:19.070Z,25.4
2023-04-06T22:54:21.335Z,25.9
2023-04-06T22:57:23.019Z,23.7
2023-04-06T23:00:24.953Z,21.7
2023-04-06T23:03:26.949Z,19.3
2023-04-06T23:06:28.863Z,22.9
2023-04-06T23:09:30.835Z,22.1
2023-04-06T23:12:32.778Z,24.7
2023-04-06T23:15:34.778Z,20.7
2023-04-06T23:18:36.715Z,22.6
2023-04-06T23:21:38.668Z,25.8
2023-04-06T23:24:40.906Z,26.7
2023-04-06T23:27:42.595Z,23
2023-04-06T23:30:44.582Z,21
2023-04-06T23:33:46.562Z,23.2
2023-04-06T23:36:48.581Z,22.4
2023-04-06T23:39:50.515Z,23.9
2023-04-06T23:42:52.461Z,24.9
2023-04-06T23:45:54.420Z,21.8
2023-04-06T23:48:56.379Z,26.4
2023-04-06T23:51:58.347Z,25.6
2023-04-06T23:55:00.341Z,25.8
2023-04-06T23:58:02.286Z,26.4
